createdAt,value
2019-03-23T00:00:55.591Z,99.99
2019-03-23T00:01:55.584Z,99.99
2019-03-23T00:02:55.622Z,99.99
2019-03-23T00:03:55.611Z,99.99
2019-03-23T00:04:55.550Z,99.99
2019-03-23T00:05:55.578Z,99.99
2019-03-23T00:06:55.882Z,99.99
2019-03-23T00:07:55.518Z,99.99
2019-03-23T00:08:55.508Z,99.99
2019-03-23T00:09:55.502Z,99.99
2019-03-23T00:10:55.483Z,99.99
2019-03-23T00:11:55.531Z,99.99
2019-03-23T00:12:55.460Z,99.99
2019-03-23T00:13:55.449Z,99.99
2019-03-23T00:14:56.412Z,99.99
2019-03-23T00:15:55.422Z,99.99
2019-03-23T00:16:55.431Z,99.99
2019-03-23T00:17:55.471Z,99.99
2019-03-23T00:18:55.406Z,99.99
2019-03-23T00:19:55.391Z,99.99
2019-03-23T00:20:55.380Z,99.99
2019-03-23T00:21:55.398Z,99.99
2019-03-23T00:22:55.355Z,99.99
2019-03-23T00:23:55.452Z,99.99
2019-03-23T00:24:55.331Z,99.99
2019-03-23T00:25:55.327Z,99.99
2019-03-23T00:26:55.307Z,99.99
2019-03-23T00:27:55.314Z,99.99
2019-03-23T00:28:55.284Z,99.99
2019-03-23T00:29:55.334Z,99.99
2019-03-23T00:30:55.262Z,99.99
2019-03-23T00:31:55.255Z,99.99
2019-03-23T00:32:55.267Z,99.99
2019-03-23T00:33:55.234Z,99.99
2019-03-23T00:34:55.290Z,99.99
2019-03-23T00:35:55.212Z,99.99
2019-03-23T00:36:55.215Z,99.99
2019-03-23T00:37:55.194Z,99.99
2019-03-23T00:38:55.176Z,99.99
2019-03-23T00:39:55.164Z,99.99
2019-03-23T00:40:55.224Z,99.99
2019-03-23T00:41:55.146Z,99.99
2019-03-23T00:42:55.142Z,99.99
2019-03-23T00:43:55.121Z,99.99
2019-03-23T00:44:55.118Z,99.99
2019-03-23T00:45:55.138Z,99.99
2019-03-23T00:46:55.133Z,99.99
2019-03-23T00:47:55.083Z,99.99
2019-03-23T00:48:55.070Z,99.99
2019-03-23T00:49:55.053Z,99.99
2019-03-23T00:50:55.091Z,99.99
2019-03-23T00:51:55.049Z,99.99
2019-03-23T00:52:55.026Z,99.99
2019-03-23T00:53:55.019Z,99.99
2019-03-23T00:54:55.000Z,99.99
2019-03-23T00:55:54.990Z,99.99
2019-03-23T00:56:55.027Z,99.99
2019-03-23T00:57:54.967Z,99.99
2019-03-23T00:58:55.026Z,99.99
2019-03-23T00:59:54.952Z,99.99
2019-03-23T01:00:54.936Z,99.99
2019-03-23T01:01:54.933Z,99.99
2019-03-23T01:02:54.952Z,99.99
2019-03-23T01:03:54.949Z,99.99
2019-03-23T01:04:54.896Z,99.99
2019-03-23T01:05:54.894Z,99.99
2019-03-23T01:06:54.895Z,99.99
2019-03-23T01:07:54.868Z,99.99
2019-03-23T01:08:54.932Z,99.99
2019-03-23T01:09:54.839Z,99.99
2019-03-23T01:10:54.881Z,99.99
2019-03-23T01:11:54.830Z,99.99
2019-03-23T01:12:54.805Z,99.99
2019-03-23T01:13:54.786Z,99.99
2019-03-23T01:14:54.846Z,99.99
2019-03-23T01:15:54.777Z,99.99
2019-03-23T01:16:54.773Z,99.99
2019-03-23T01:17:54.750Z,99.99
2019-03-23T01:18:54.742Z,99.99
2019-03-23T01:19:54.732Z,99.99
2019-03-23T01:20:54.753Z,99.99
2019-03-23T01:21:54.714Z,99.99
2019-03-23T01:22:54.711Z,99.99
2019-03-23T01:23:54.681Z,99.99
2019-03-23T01:24:54.698Z,99.99
2019-03-23T01:25:54.753Z,99.99
2019-03-23T01:26:54.651Z,99.99
2019-03-23T01:27:54.640Z,99.99
2019-03-23T01:28:54.628Z,99.99
2019-03-23T01:29:54.619Z,99.99
2019-03-23T01:30:54.610Z,99.99
2019-03-23T01:31:54.638Z,99.99
2019-03-23T01:32:54.624Z,99.99
2019-03-23T01:33:54.584Z,99.99
2019-03-23T01:34:54.574Z,99.99
2019-03-23T01:35:54.548Z,99.99
2019-03-23T01:37:02.500Z,99.99
2019-03-23T01:37:55.565Z,99.99
2019-03-23T01:38:54.520Z,99.99
2019-03-23T01:39:54.519Z,99.99
2019-03-23T01:40:54.502Z,99.99
2019-03-23T01:41:54.537Z,99.99
2019-03-23T01:42:54.507Z,99.99
2019-03-23T01:43:54.519Z,99.99
2019-03-23T01:44:54.858Z,99.99
2019-03-23T01:45:54.446Z,99.99
2019-03-23T01:46:54.455Z,99.99
2019-03-23T01:47:54.434Z,99.99
2019-03-23T01:48:54.414Z,99.99
2019-03-23T01:49:54.409Z,99.99
2019-03-23T01:50:54.433Z,99.99
2019-03-23T01:51:54.390Z,99.99
2019-03-23T01:52:54.370Z,99.99
2019-03-23T01:53:54.354Z,99.99
2019-03-23T01:54:54.353Z,99.99
2019-03-23T01:55:54.373Z,99.99
2019-03-23T01:56:54.330Z,99.99
2019-03-23T01:57:54.398Z,99.99
2019-03-23T01:58:54.295Z,99.99
2019-03-23T01:59:54.290Z,99.99
2019-03-23T02:00:54.295Z,99.99
2019-03-23T02:01:54.309Z,99.99
2019-03-23T02:02:54.280Z,99.99
2019-03-23T02:03:54.243Z,99.99
2019-03-23T02:04:54.242Z,99.99
2019-03-23T02:05:54.305Z,99.99
2019-03-23T02:06:54.223Z,99.99
2019-03-23T02:07:54.237Z,99.99
2019-03-23T02:08:54.236Z,99.99
2019-03-23T02:09:54.340Z,99.99
2019-03-23T02:10:54.166Z,99.99
2019-03-23T02:11:54.157Z,99.99
2019-03-23T02:12:54.165Z,99.99
2019-03-23T02:13:54.183Z,99.99
2019-03-23T02:14:54.145Z,99.99
2019-03-23T02:15:54.107Z,99.99
2019-03-23T02:16:54.101Z,99.99
2019-03-23T02:17:54.094Z,99.99
2019-03-23T02:18:54.117Z,99.99
2019-03-23T02:19:54.071Z,99.99
2019-03-23T02:20:54.092Z,99.99
2019-03-23T02:21:54.051Z,99.99
2019-03-23T02:22:54.035Z,99.99
2019-03-23T02:23:54.087Z,99.99
2019-03-23T02:24:54.072Z,99.99
2019-03-23T02:25:54.022Z,99.99
2019-03-23T02:26:54.000Z,99.99
2019-03-23T02:27:53.979Z,99.99
2019-03-23T02:28:53.971Z,99.99
2019-03-23T02:29:53.971Z,99.99
2019-03-23T02:30:54.014Z,99.99
2019-03-23T02:31:53.957Z,99.99
2019-03-23T02:32:53.939Z,99.99
2019-03-23T02:33:53.915Z,99.99
2019-03-23T02:34:53.905Z,99.99
2019-03-23T02:35:53.901Z,99.99
2019-03-23T02:36:53.931Z,99.99
2019-03-23T02:38:00.433Z,99.99
2019-03-23T02:38:53.857Z,99.99
2019-03-23T02:39:53.852Z,99.99
2019-03-23T02:40:53.885Z,99.99
2019-03-23T02:41:53.826Z,99.99
2019-03-23T02:42:53.817Z,99.99
2019-03-23T02:43:53.849Z,99.99
2019-03-23T02:44:53.800Z,99.99
2019-03-23T02:45:53.792Z,99.99
2019-03-23T02:46:53.783Z,99.99
2019-03-23T02:47:53.793Z,99.99
2019-03-23T02:48:53.818Z,99.99
2019-03-23T02:49:53.750Z,99.99
2019-03-23T02:50:53.773Z,99.99
2019-03-23T02:51:53.721Z,99.99
2019-03-23T02:52:53.728Z,99.99
2019-03-23T02:53:53.703Z,99.99
2019-03-23T02:54:53.689Z,99.99
2019-03-23T02:55:53.727Z,99.99
2019-03-23T02:56:53.667Z,99.99
2019-03-23T02:57:53.677Z,99.99
2019-03-23T02:58:53.710Z,99.99
2019-03-23T02:59:53.646Z,99.99
2019-03-23T03:00:53.673Z,99.99
2019-03-23T03:01:53.607Z,99.99
2019-03-23T03:02:53.600Z,99.99
2019-03-23T03:03:53.587Z,99.99
2019-03-23T03:04:53.585Z,99.99
2019-03-23T03:05:53.615Z,99.99
2019-03-23T03:06:53.559Z,99.99
2019-03-23T03:07:53.542Z,99.99
2019-03-23T03:08:53.538Z,99.99
2019-03-23T03:09:53.522Z,99.99
2019-03-23T03:10:53.517Z,99.99
2019-03-23T03:11:53.652Z,99.99
2019-03-23T03:12:53.500Z,99.99
2019-03-23T03:13:53.479Z,99.99
2019-03-23T03:14:53.469Z,99.99
2019-03-23T03:15:53.461Z,99.99
2019-03-23T03:16:53.443Z,99.99
2019-03-23T03:17:53.474Z,99.99
2019-03-23T03:18:53.429Z,99.99
2019-03-23T03:19:53.416Z,99.99
2019-03-23T03:20:53.437Z,99.99
2019-03-23T03:21:53.469Z,99.99
2019-03-23T03:22:53.441Z,99.99
2019-03-23T03:23:53.391Z,99.99
2019-03-23T03:24:53.357Z,99.99
2019-03-23T03:25:53.373Z,99.99
2019-03-23T03:26:53.342Z,99.99
2019-03-23T03:27:53.363Z,99.99
2019-03-23T03:28:53.319Z,99.99
2019-03-23T03:29:53.319Z,99.99
2019-03-23T03:30:53.363Z,99.99
2019-03-23T03:31:53.282Z,99.99
2019-03-23T03:32:53.273Z,99.99
2019-03-23T03:33:53.264Z,99.99
2019-03-23T03:34:53.246Z,99.99
2019-03-23T03:35:53.259Z,99.99
2019-03-23T03:36:53.279Z,99.99
2019-03-23T03:37:56.706Z,99.99
2019-03-23T03:38:53.200Z,99.99
2019-03-23T03:39:53.190Z,99.99
2019-03-23T03:40:53.233Z,99.99
2019-03-23T03:41:53.178Z,99.99
2019-03-23T03:42:53.157Z,99.99
2019-03-23T03:43:53.148Z,99.99
2019-03-23T03:44:53.143Z,99.99
2019-03-23T03:45:53.195Z,99.99
2019-03-23T03:46:53.123Z,99.99
2019-03-23T03:47:53.115Z,99.99
2019-03-23T03:48:53.097Z,99.99
2019-03-23T03:49:53.100Z,99.99
2019-03-23T03:50:53.116Z,99.99
2019-03-23T03:51:53.059Z,99.99
2019-03-23T03:52:53.072Z,99.99
2019-03-23T03:53:53.060Z,99.99
2019-03-23T03:54:53.031Z,99.99
2019-03-23T03:55:53.042Z,99.99
2019-03-23T03:56:53.074Z,99.99
2019-03-23T03:57:53.001Z,99.99
2019-03-23T03:58:53.013Z,99.99
2019-03-23T03:59:52.983Z,99.99
2019-03-23T04:00:52.965Z,99.99
2019-03-23T04:01:52.956Z,99.99
2019-03-23T04:02:53.016Z,99.99
2019-03-23T04:03:52.931Z,99.99
2019-03-23T04:04:52.938Z,99.99
2019-03-23T04:05:52.915Z,99.99
2019-03-23T04:06:52.896Z,99.99
2019-03-23T04:07:52.879Z,99.99
2019-03-23T04:08:52.970Z,99.99
2019-03-23T04:09:52.869Z,99.99
2019-03-23T04:10:52.866Z,99.99
2019-03-23T04:11:52.845Z,99.99
2019-03-23T04:12:52.828Z,99.99
2019-03-23T04:13:52.828Z,99.99
2019-03-23T04:14:52.848Z,99.99
2019-03-23T04:15:52.817Z,99.99
2019-03-23T04:16:52.788Z,99.99
2019-03-23T04:17:52.825Z,99.99
2019-03-23T04:18:52.766Z,99.99
2019-03-23T04:19:52.754Z,99.99
2019-03-23T04:20:52.789Z,99.99
2019-03-23T04:21:52.747Z,99.99
2019-03-23T04:22:52.739Z,99.99
2019-03-23T04:23:52.705Z,99.99
2019-03-23T04:24:52.701Z,99.99
2019-03-23T04:25:52.749Z,99.99
2019-03-23T04:26:52.699Z,99.99
2019-03-23T04:27:52.672Z,99.99
2019-03-23T04:28:52.692Z,99.99
2019-03-23T04:29:52.689Z,99.99
2019-03-23T04:30:52.648Z,99.99
2019-03-23T04:31:52.631Z,99.99
2019-03-23T04:32:52.623Z,99.99
2019-03-23T04:33:52.613Z,99.99
2019-03-23T04:34:52.641Z,99.99
2019-03-23T04:35:52.573Z,99.99
2019-03-23T04:36:52.575Z,99.99
2019-03-23T04:37:52.554Z,99.99
2019-03-23T04:38:52.772Z,99.99
2019-03-23T04:39:52.573Z,99.99
2019-03-23T04:40:52.567Z,99.99
2019-03-23T04:41:52.511Z,99.99
2019-03-23T04:42:52.509Z,99.99
2019-03-23T04:43:52.503Z,99.99
2019-03-23T04:44:52.502Z,99.99
2019-03-23T04:45:52.520Z,99.99
2019-03-23T04:46:52.460Z,99.99
2019-03-23T04:47:52.446Z,99.99
2019-03-23T04:48:52.449Z,99.99
2019-03-23T04:49:52.421Z,99.99
2019-03-23T04:50:52.467Z,99.99
2019-03-23T04:51:52.453Z,99.99
2019-03-23T04:52:52.430Z,99.99
2019-03-23T04:53:52.385Z,99.99
2019-03-23T04:54:52.374Z,99.99
2019-03-23T04:55:52.368Z,99.99
2019-03-23T04:56:52.367Z,99.99
2019-03-23T04:57:52.383Z,99.99
2019-03-23T04:58:52.323Z,99.99
2019-03-23T04:59:52.321Z,99.99
2019-03-23T05:00:52.301Z,99.99
2019-03-23T05:01:52.297Z,99.99
2019-03-23T05:02:52.344Z,99.99
2019-03-23T05:03:52.269Z,99.99
2019-03-23T05:04:52.259Z,99.99
2019-03-23T05:05:52.254Z,99.99
2019-03-23T05:06:52.238Z,99.99
2019-03-23T05:07:52.294Z,99.99
2019-03-23T05:08:52.210Z,99.99
2019-03-23T05:09:52.258Z,99.99
2019-03-23T05:10:52.198Z,99.99
2019-03-23T05:11:52.180Z,99.99
2019-03-23T05:12:52.173Z,99.99
2019-03-23T05:13:52.157Z,99.99
2019-03-23T05:14:52.180Z,99.99
2019-03-23T05:15:52.140Z,99.99
2019-03-23T05:16:52.134Z,99.99
2019-03-23T05:17:52.121Z,99.99
2019-03-23T05:18:52.108Z,99.99
2019-03-23T05:19:52.159Z,99.99
2019-03-23T05:20:52.085Z,99.99
2019-03-23T05:21:52.074Z,99.99
2019-03-23T05:22:52.076Z,99.99
2019-03-23T05:23:52.060Z,99.99
2019-03-23T05:24:52.048Z,99.99
2019-03-23T05:25:52.070Z,99.99
2019-03-23T05:26:52.013Z,99.99
2019-03-23T05:27:52.015Z,99.99
2019-03-23T05:28:52.017Z,99.99
2019-03-23T05:29:51.995Z,99.99
2019-03-23T05:30:52.022Z,99.99
2019-03-23T05:31:52.007Z,99.99
2019-03-23T05:32:51.946Z,99.99
2019-03-23T05:33:51.948Z,99.99
2019-03-23T05:34:51.927Z,99.99
2019-03-23T05:35:51.923Z,99.99
2019-03-23T05:36:51.910Z,99.99
2019-03-23T05:37:52.076Z,99.99
2019-03-23T05:38:51.978Z,99.99
2019-03-23T05:39:51.882Z,99.99
2019-03-23T05:40:51.876Z,99.99
2019-03-23T05:41:51.863Z,99.99
2019-03-23T05:42:51.914Z,99.99
2019-03-23T05:43:51.876Z,99.99
2019-03-23T05:44:51.831Z,99.99
2019-03-23T05:45:51.824Z,99.99
2019-03-23T05:46:54.182Z,99.99
2019-03-23T05:47:51.846Z,99.99
2019-03-23T05:48:51.788Z,99.99
2019-03-23T05:49:51.771Z,99.99
2019-03-23T05:50:51.751Z,99.99
2019-03-23T05:51:51.751Z,99.99
2019-03-23T05:52:51.728Z,99.99
2019-03-23T05:53:51.783Z,99.99
2019-03-23T05:54:51.712Z,99.99
2019-03-23T05:55:51.709Z,99.99
2019-03-23T05:56:51.709Z,99.99
2019-03-23T05:57:51.913Z,99.99
2019-03-23T05:58:51.672Z,99.99
2019-03-23T05:59:51.657Z,99.99
2019-03-23T06:00:51.660Z,99.99
2019-03-23T06:01:51.639Z,99.99
2019-03-23T06:02:51.630Z,99.99
2019-03-23T06:03:51.685Z,99.99
2019-03-23T06:04:51.607Z,99.99
2019-03-23T06:05:51.590Z,99.99
2019-03-23T06:06:51.615Z,99.99
2019-03-23T06:07:51.573Z,99.99
2019-03-23T06:08:55.277Z,99.99
2019-03-23T06:09:51.595Z,99.99
2019-03-23T06:10:51.582Z,99.99
2019-03-23T06:11:51.528Z,99.99
2019-03-23T06:12:51.628Z,99.99
2019-03-23T06:13:51.500Z,99.99
2019-03-23T06:14:51.505Z,99.88
2019-03-23T06:15:51.482Z,99.99
2019-03-23T06:16:51.533Z,99.84
2019-03-23T06:17:51.467Z,99.99
2019-03-23T06:18:51.467Z,99.99
2019-03-23T06:19:51.449Z,99.38
2019-03-23T06:20:51.435Z,99.27
2019-03-23T06:21:51.456Z,98.97
2019-03-23T06:22:51.414Z,98.86
2019-03-23T06:23:51.408Z,98.66
2019-03-23T06:24:51.463Z,98.55
2019-03-23T06:25:51.385Z,98.03
2019-03-23T06:26:51.357Z,96.96
2019-03-23T06:27:51.392Z,97.06
2019-03-23T06:28:51.337Z,97.33
2019-03-23T06:29:51.350Z,96.41
2019-03-23T06:30:51.342Z,96.15
2019-03-23T06:31:51.315Z,95.58
2019-03-23T06:32:51.373Z,94.96
2019-03-23T06:33:51.290Z,94.96
2019-03-23T06:34:51.281Z,93.68
2019-03-23T06:35:51.299Z,94.71
2019-03-23T06:36:51.252Z,93.06
2019-03-23T06:37:51.300Z,93.37
2019-03-23T06:38:51.485Z,92.76
2019-03-23T06:39:51.995Z,92.82
2019-03-23T06:40:51.221Z,92.61
2019-03-23T06:41:51.242Z,91.99
2019-03-23T06:42:59.360Z,91.23
2019-03-23T06:43:52.258Z,91.02
2019-03-23T06:44:51.164Z,90.57
2019-03-23T06:45:51.240Z,89.95
2019-03-23T06:46:51.187Z,89.54
2019-03-23T06:47:51.129Z,89.29
2019-03-23T06:48:51.125Z,88.47
2019-03-23T06:49:51.111Z,88.74
2019-03-23T06:50:51.146Z,88.08
2019-03-23T06:51:51.130Z,87.77
2019-03-23T06:52:51.100Z,86.91
2019-03-23T06:53:51.067Z,85.64
2019-03-23T06:54:51.053Z,83.90
2019-03-23T06:55:51.063Z,83.96
2019-03-23T06:56:51.076Z,83.92
2019-03-23T06:57:51.030Z,83.41
2019-03-23T06:58:51.012Z,83.17
2019-03-23T06:59:51.064Z,82.57
2019-03-23T07:00:51.003Z,80.90
2019-03-23T07:01:51.058Z,79.68
2019-03-23T07:02:50.985Z,76.61
2019-03-23T07:03:50.995Z,77.29
2019-03-23T07:04:50.975Z,76.33
2019-03-23T07:05:50.991Z,75.24
2019-03-23T07:06:50.920Z,75.14
2019-03-23T07:07:51.001Z,76.23
2019-03-23T07:08:50.904Z,75.41
2019-03-23T07:09:50.897Z,74.97
2019-03-23T07:10:50.879Z,74.29
2019-03-23T07:11:50.872Z,72.48
2019-03-23T07:12:50.871Z,71.19
2019-03-23T07:13:50.910Z,69.29
2019-03-23T07:14:50.844Z,67.10
2019-03-23T07:15:50.832Z,66.22
2019-03-23T07:16:50.810Z,64.39
2019-03-23T07:17:50.801Z,63.75
2019-03-23T07:18:50.820Z,61.27
2019-03-23T07:19:50.834Z,59.49
2019-03-23T07:20:50.838Z,57.24
2019-03-23T07:21:50.761Z,57.04
2019-03-23T07:22:50.752Z,57.21
2019-03-23T07:23:50.736Z,55.65
2019-03-23T07:24:50.719Z,53.65
2019-03-23T07:25:50.714Z,52.62
2019-03-23T07:26:50.742Z,52.19
2019-03-23T07:27:50.698Z,50.96
2019-03-23T07:28:50.727Z,50.31
2019-03-23T07:29:50.665Z,49.02
2019-03-23T07:30:50.660Z,47.17
2019-03-23T07:31:50.698Z,46.45
2019-03-23T07:32:50.649Z,44.82
2019-03-23T07:33:50.621Z,45.30
2019-03-23T07:34:50.612Z,44.56
2019-03-23T07:35:50.615Z,43.43
2019-03-23T07:36:50.599Z,43.48
2019-03-23T07:37:50.625Z,41.52
2019-03-23T07:38:50.582Z,40.28
2019-03-23T07:39:50.629Z,38.39
2019-03-23T07:40:50.565Z,38.90
2019-03-23T07:41:50.634Z,39.42
2019-03-23T07:42:50.695Z,39.20
2019-03-23T07:43:50.689Z,38.37
2019-03-23T07:44:50.562Z,37.32
2019-03-23T07:45:50.492Z,37.38
2019-03-23T07:46:50.482Z,35.66
2019-03-23T07:47:50.528Z,34.73
2019-03-23T07:48:50.482Z,34.43
2019-03-23T07:49:50.509Z,34.89
2019-03-23T07:50:50.448Z,33.39
2019-03-23T07:51:50.422Z,33.36
2019-03-23T07:52:50.424Z,32.28
2019-03-23T07:53:50.469Z,33.40
2019-03-23T07:54:50.460Z,33.59
2019-03-23T07:55:50.395Z,31.68
2019-03-23T07:56:50.391Z,32.15
2019-03-23T07:57:50.366Z,31.66
2019-03-23T07:58:50.360Z,31.77
2019-03-23T07:59:50.340Z,33.37
2019-03-23T08:00:50.386Z,32.65
2019-03-23T08:01:50.337Z,31.76
2019-03-23T08:02:50.325Z,31.07
2019-03-23T08:03:50.290Z,31.68
2019-03-23T08:04:50.319Z,32.39
2019-03-23T08:05:50.334Z,31.56
2019-03-23T08:06:50.343Z,31.13
2019-03-23T08:07:50.258Z,30.73
2019-03-23T08:08:50.247Z,30.82
2019-03-23T08:09:50.233Z,30.00
2019-03-23T08:10:50.216Z,30.68
2019-03-23T08:11:50.208Z,29.79
2019-03-23T08:12:50.270Z,30.10
2019-03-23T08:13:50.193Z,30.91
2019-03-23T08:14:50.194Z,29.79
2019-03-23T08:15:50.170Z,30.10
2019-03-23T08:16:50.178Z,30.99
2019-03-23T08:17:50.161Z,30.21
2019-03-23T08:18:50.208Z,31.04
2019-03-23T08:19:50.130Z,30.92
2019-03-23T08:20:50.126Z,30.17
2019-03-23T08:21:50.106Z,29.34
2019-03-23T08:22:50.088Z,28.63
2019-03-23T08:23:50.138Z,28.03
2019-03-23T08:24:50.076Z,27.75
2019-03-23T08:25:50.143Z,28.12
2019-03-23T08:26:50.056Z,27.20
2019-03-23T08:27:50.062Z,26.61
2019-03-23T08:28:50.033Z,26.69
2019-03-23T08:29:50.019Z,26.20
2019-03-23T08:30:50.016Z,26.80
2019-03-23T08:31:50.065Z,26.79
2019-03-23T08:32:49.984Z,25.89
2019-03-23T08:33:51.996Z,25.59
2019-03-23T08:34:50.049Z,25.57
2019-03-23T08:35:49.962Z,24.66
2019-03-23T08:36:49.954Z,24.86
2019-03-23T08:37:49.994Z,25.17
2019-03-23T08:38:51.758Z,24.75
2019-03-23T08:39:49.953Z,24.85
2019-03-23T08:40:50.045Z,24.35
2019-03-23T08:41:49.895Z,24.07
2019-03-23T08:42:49.906Z,24.52
2019-03-23T08:43:49.865Z,24.32
2019-03-23T08:44:49.869Z,23.43
2019-03-23T08:45:50.149Z,22.63
2019-03-23T08:46:52.377Z,22.73
2019-03-23T08:47:49.835Z,23.33
2019-03-23T08:48:49.943Z,22.81
2019-03-23T08:49:49.855Z,22.02
2019-03-23T08:50:50.052Z,21.81
2019-03-23T08:51:50.661Z,21.31
2019-03-23T08:52:49.934Z,21.01
2019-03-23T08:53:49.904Z,21.12
2019-03-23T08:54:49.967Z,20.74
2019-03-23T08:55:49.890Z,21.92
2019-03-23T08:56:49.968Z,22.02
2019-03-23T08:57:50.204Z,22.11
2019-03-23T08:58:49.761Z,21.32
2019-03-23T08:59:49.766Z,20.94
2019-03-23T09:00:49.735Z,20.74
2019-03-23T09:01:49.723Z,21.11
2019-03-23T09:02:49.665Z,21.00
2019-03-23T09:03:52.658Z,20.59
2019-03-23T09:04:49.638Z,20.30
2019-03-23T09:05:49.628Z,19.91
2019-03-23T09:06:49.621Z,20.50
2019-03-23T09:07:49.678Z,20.60
2019-03-23T09:08:49.588Z,20.20
2019-03-23T09:09:58.880Z,19.91
2019-03-23T09:10:50.589Z,20.88
2019-03-23T09:11:49.575Z,19.91
2019-03-23T09:12:49.636Z,20.01
2019-03-23T09:13:49.576Z,19.80
2019-03-23T09:14:49.570Z,19.50
2019-03-23T09:15:49.529Z,19.40
2019-03-23T09:16:49.640Z,19.40
2019-03-23T09:17:49.508Z,19.22
2019-03-23T09:18:49.583Z,18.93
2019-03-23T09:19:49.478Z,19.32
2019-03-23T09:20:49.482Z,19.50
2019-03-23T09:21:49.463Z,18.52
2019-03-23T09:22:49.461Z,19.22
2019-03-23T09:23:49.522Z,19.21
2019-03-23T09:24:49.495Z,19.10
2019-03-23T09:25:49.422Z,18.51
2019-03-23T09:26:49.428Z,19.18
2019-03-23T09:27:49.397Z,19.61
2019-03-23T09:28:49.391Z,18.65
2019-03-23T09:29:49.422Z,20.60
2019-03-23T09:30:49.363Z,19.92
2019-03-23T09:31:49.353Z,20.32
2019-03-23T09:32:49.343Z,20.01
2019-03-23T09:33:49.354Z,19.92
2019-03-23T09:34:49.370Z,19.93
2019-03-23T09:35:49.435Z,20.11
2019-03-23T09:36:49.304Z,19.02
2019-03-23T09:37:49.295Z,18.94
2019-03-23T09:38:49.290Z,20.03
2019-03-23T09:39:49.269Z,20.73
2019-03-23T09:40:49.609Z,21.22
2019-03-23T09:41:49.274Z,20.14
2019-03-23T09:42:49.242Z,20.62
2019-03-23T09:43:49.238Z,20.80
2019-03-23T09:44:49.215Z,20.30
2019-03-23T09:45:49.433Z,19.40
2019-03-23T09:46:49.281Z,19.09
2019-03-23T09:47:49.206Z,18.60
2019-03-23T09:48:49.164Z,18.30
2019-03-23T09:49:49.177Z,18.21
2019-03-23T09:50:49.152Z,18.12
2019-03-23T09:51:49.188Z,19.09
2019-03-23T09:52:49.151Z,18.43
2019-03-23T09:53:49.140Z,18.91
2019-03-23T09:54:49.107Z,18.71
2019-03-23T09:55:49.108Z,18.59
2019-03-23T09:56:49.089Z,18.59
2019-03-23T09:57:49.154Z,18.11
2019-03-23T09:58:49.119Z,18.02
2019-03-23T09:59:49.118Z,18.02
2019-03-23T10:00:49.077Z,17.61
2019-03-23T10:01:49.043Z,17.71
2019-03-23T10:02:49.033Z,17.81
2019-03-23T10:03:49.123Z,17.32
2019-03-23T10:04:49.013Z,18.28
2019-03-23T10:05:49.027Z,18.28
2019-03-23T10:06:49.050Z,17.43
2019-03-23T10:07:48.976Z,18.49
2019-03-23T10:08:49.027Z,17.61
2019-03-23T10:09:48.974Z,17.33
2019-03-23T10:10:48.970Z,18.21
2019-03-23T10:11:49.013Z,17.74
2019-03-23T10:12:48.943Z,17.65
2019-03-23T10:13:48.925Z,18.91
2019-03-23T10:14:48.970Z,18.71
2019-03-23T10:15:48.926Z,18.61
2019-03-23T10:16:48.905Z,18.61
2019-03-23T10:17:48.915Z,18.13
2019-03-23T10:18:48.983Z,17.64
2019-03-23T10:19:48.864Z,19.09
2019-03-23T10:20:48.930Z,18.90
2019-03-23T10:21:48.843Z,19.10
2019-03-23T10:22:48.847Z,18.82
2019-03-23T10:23:48.829Z,19.43
2019-03-23T10:24:48.799Z,18.56
2019-03-23T10:25:48.879Z,20.10
2019-03-23T10:26:48.868Z,19.52
2019-03-23T10:27:48.783Z,19.02
2019-03-23T10:28:48.780Z,18.93
2019-03-23T10:29:48.749Z,19.20
2019-03-23T10:30:48.751Z,18.81
2019-03-23T10:31:48.821Z,18.62
2019-03-23T10:32:48.732Z,18.23
2019-03-23T10:33:48.792Z,19.01
2019-03-23T10:34:48.721Z,18.13
2019-03-23T10:35:48.732Z,18.70
2019-03-23T10:36:48.685Z,18.29
2019-03-23T10:37:48.679Z,17.90
2019-03-23T10:38:48.674Z,18.10
2019-03-23T10:39:48.700Z,18.29
2019-03-23T10:40:48.698Z,18.00
2019-03-23T10:41:48.630Z,17.90
2019-03-23T10:42:48.632Z,18.10
2019-03-23T10:43:48.612Z,17.60
2019-03-23T10:44:48.610Z,17.79
2019-03-23T10:45:48.652Z,17.79
2019-03-23T10:46:48.824Z,17.69
2019-03-23T10:47:48.721Z,18.57
2019-03-23T10:48:48.840Z,18.57
2019-03-23T10:49:48.561Z,18.38
2019-03-23T10:50:48.637Z,17.41
2019-03-23T10:51:48.542Z,18.27
2019-03-23T10:52:48.534Z,17.69
2019-03-23T10:53:48.514Z,18.38
2019-03-23T10:54:48.502Z,18.48
2019-03-23T10:55:48.502Z,18.40
2019-03-23T10:56:48.535Z,18.12
2019-03-23T10:57:48.483Z,17.94
2019-03-23T10:58:48.473Z,18.73
2019-03-23T10:59:48.536Z,18.05
2019-03-23T11:00:48.454Z,19.12
2019-03-23T11:01:48.427Z,19.02
2019-03-23T11:02:48.479Z,18.93
2019-03-23T11:03:48.414Z,18.92
2019-03-23T11:04:48.434Z,19.13
2019-03-23T11:05:48.386Z,18.55
2019-03-23T11:06:48.468Z,19.34
2019-03-23T11:07:48.436Z,19.53
2019-03-23T11:08:48.380Z,19.15
2019-03-23T11:09:48.359Z,20.62
2019-03-23T11:10:48.345Z,20.14
2019-03-23T11:11:48.332Z,20.04
2019-03-23T11:12:48.731Z,19.94
2019-03-23T11:13:48.318Z,20.23
2019-03-23T11:14:48.316Z,19.84
2019-03-23T11:15:48.315Z,20.03
2019-03-23T11:16:48.296Z,19.92
2019-03-23T11:17:48.271Z,19.82
2019-03-23T11:18:48.349Z,20.22
2019-03-23T11:19:48.253Z,19.82
2019-03-23T11:20:48.253Z,19.93
2019-03-23T11:21:48.272Z,20.14
2019-03-23T11:22:48.222Z,21.02
2019-03-23T11:23:48.220Z,20.81
2019-03-23T11:24:48.274Z,20.04
2019-03-23T11:25:48.199Z,19.93
2019-03-23T11:26:48.183Z,19.74
2019-03-23T11:27:48.175Z,20.73
2019-03-23T11:28:48.165Z,20.93
2019-03-23T11:29:48.208Z,21.61
2019-03-23T11:30:48.139Z,21.22
2019-03-23T11:31:48.135Z,21.04
2019-03-23T11:32:48.135Z,21.22
2019-03-23T11:33:48.121Z,22.31
2019-03-23T11:34:48.152Z,21.62
2019-03-23T11:35:57.407Z,20.54
2019-03-23T11:36:49.086Z,22.20
2019-03-23T11:37:48.230Z,22.21
2019-03-23T11:38:48.065Z,21.82
2019-03-23T11:39:48.062Z,22.11
2019-03-23T11:40:53.815Z,22.22
2019-03-23T11:41:49.071Z,22.64
2019-03-23T11:42:50.287Z,22.95
2019-03-23T11:43:48.012Z,23.02
2019-03-23T11:44:48.094Z,22.81
2019-03-23T11:45:48.006Z,23.11
2019-03-23T11:46:48.376Z,22.62
2019-03-23T11:47:48.017Z,22.23
2019-03-23T11:48:47.968Z,22.83
2019-03-23T11:49:47.953Z,22.24
2019-03-23T11:50:47.945Z,22.46
2019-03-23T11:51:47.958Z,21.88
2019-03-23T11:52:47.920Z,21.96
2019-03-23T11:53:47.999Z,20.59
2019-03-23T11:54:47.933Z,21.86
2019-03-23T11:55:47.905Z,22.56
2019-03-23T11:56:47.880Z,22.27
2019-03-23T11:57:47.883Z,22.77
2019-03-23T11:58:47.869Z,22.98
2019-03-23T11:59:47.903Z,22.61
2019-03-23T12:00:47.988Z,23.52
2019-03-23T12:01:51.723Z,23.71
2019-03-23T12:02:47.849Z,24.70
2019-03-23T12:03:47.824Z,25.42
2019-03-23T12:04:47.861Z,25.92
2019-03-23T12:05:47.839Z,27.11
2019-03-23T12:06:47.815Z,27.71
2019-03-23T12:07:47.773Z,27.20
2019-03-23T12:08:47.759Z,26.92
2019-03-23T12:09:47.758Z,27.22
2019-03-23T12:10:47.792Z,27.51
2019-03-23T12:11:47.929Z,27.22
2019-03-23T12:12:47.730Z,27.43
2019-03-23T12:13:47.723Z,27.42
2019-03-23T12:14:47.696Z,27.12
2019-03-23T12:15:47.741Z,28.23
2019-03-23T12:16:47.672Z,28.74
2019-03-23T12:17:47.674Z,28.52
2019-03-23T12:18:47.672Z,28.13
2019-03-23T12:19:47.652Z,28.92
2019-03-23T12:20:47.639Z,27.74
2019-03-23T12:21:47.690Z,27.66
2019-03-23T12:22:47.612Z,28.54
2019-03-23T12:23:47.610Z,28.64
2019-03-23T12:24:47.602Z,28.54
2019-03-23T12:25:47.618Z,29.06
2019-03-23T12:26:47.613Z,30.27
2019-03-23T12:27:47.634Z,30.61
2019-03-23T12:28:47.584Z,30.74
2019-03-23T12:29:47.552Z,30.94
2019-03-23T12:30:47.554Z,30.52
2019-03-23T12:31:47.538Z,30.74
2019-03-23T12:32:47.562Z,30.64
2019-03-23T12:33:47.525Z,30.13
2019-03-23T12:34:47.523Z,30.95
2019-03-23T12:35:47.481Z,32.78
2019-03-23T12:36:47.476Z,33.39
2019-03-23T12:37:47.533Z,32.79
2019-03-23T12:38:47.518Z,33.00
2019-03-23T12:39:47.435Z,33.17
2019-03-23T12:40:47.436Z,32.39
2019-03-23T12:41:47.422Z,33.29
2019-03-23T12:42:47.432Z,33.50
2019-03-23T12:43:47.474Z,32.89
2019-03-23T12:44:47.419Z,32.78
2019-03-23T12:45:47.384Z,32.39
2019-03-23T12:46:48.496Z,32.89
2019-03-23T12:47:47.367Z,33.11
2019-03-23T12:48:47.351Z,32.89
2019-03-23T12:49:47.418Z,32.68
2019-03-23T12:50:47.340Z,33.19
2019-03-23T12:51:47.325Z,33.50
2019-03-23T12:52:47.295Z,33.62